createdAt,value
2019-01-11T00:02:08.888Z,1.70
2019-01-11T00:04:37.321Z,1.70
2019-01-11T00:07:05.730Z,1.80
2019-01-11T00:09:34.475Z,1.80
2019-01-11T00:12:02.921Z,1.80
2019-01-11T00:14:31.401Z,1.80
2019-01-11T00:16:59.803Z,1.80
2019-01-11T00:19:28.499Z,1.70
2019-01-11T00:21:56.903Z,1.80
2019-01-11T00:24:25.715Z,1.70
2019-01-11T00:26:54.126Z,1.70
2019-01-11T00:29:22.519Z,1.80
2019-01-11T00:31:50.934Z,1.70
2019-01-11T00:34:19.358Z,1.80
2019-01-11T00:36:47.767Z,1.80
2019-01-11T00:39:16.169Z,1.80
2019-01-11T00:41:44.606Z,1.80
2019-01-11T00:44:13.030Z,1.80
2019-01-11T00:46:41.445Z,1.80
2019-01-11T00:49:13.496Z,1.90
2019-01-11T00:51:40.725Z,1.90
2019-01-11T00:54:09.430Z,1.90
2019-01-11T00:56:37.842Z,2.00
2019-01-11T00:59:06.687Z,2.00
2019-01-11T01:01:35.113Z,2.00
2019-01-11T01:04:03.611Z,2.00
2019-01-11T01:06:32.025Z,2.00
2019-01-11T01:09:00.577Z,2.00
2019-01-11T01:11:29.074Z,2.00
2019-01-11T01:13:57.490Z,2.00
2019-01-11T01:16:25.933Z,2.00
2019-01-11T01:18:54.334Z,1.90
2019-01-11T01:21:23.009Z,1.90
2019-01-11T01:23:51.438Z,2.00
2019-01-11T01:26:19.861Z,2.00
2019-01-11T01:28:50.170Z,2.00
2019-01-11T01:31:18.595Z,2.00
2019-01-11T01:33:47.004Z,2.10
2019-01-11T01:36:15.422Z,2.10
2019-01-11T01:38:43.869Z,2.10
2019-01-11T01:41:12.280Z,2.10
2019-01-11T01:43:40.765Z,2.10
2019-01-11T01:46:09.197Z,2.10
2019-01-11T01:48:37.911Z,2.20
2019-01-11T01:51:06.350Z,2.20
2019-01-11T01:53:34.841Z,2.20
2019-01-11T01:56:03.255Z,2.20
2019-01-11T01:58:31.663Z,2.20
2019-01-11T02:01:00.063Z,2.20
2019-01-11T02:03:28.475Z,2.20
2019-01-11T02:05:57.138Z,2.20
2019-01-11T02:08:25.558Z,2.10
2019-01-11T02:10:54.266Z,2.10
2019-01-11T02:13:22.677Z,2.10
2019-01-11T02:15:51.374Z,2.10
2019-01-11T02:18:19.963Z,2.10
2019-01-11T02:20:48.398Z,2.10
2019-01-11T02:23:16.846Z,2.10
2019-01-11T02:25:46.261Z,2.10
2019-01-11T02:28:14.895Z,2.10
2019-01-11T02:30:43.298Z,2.10
2019-01-11T02:33:11.953Z,2.10
2019-01-11T02:35:40.381Z,2.10
2019-01-11T02:38:10.051Z,2.10
2019-01-11T02:40:38.468Z,2.10
2019-01-11T02:43:07.195Z,2.10
2019-01-11T02:45:35.591Z,2.10
2019-01-11T02:48:04.101Z,2.10
2019-01-11T02:50:32.517Z,2.10
2019-01-11T02:53:00.933Z,2.20
2019-01-11T02:55:29.361Z,2.20
2019-01-11T02:57:57.770Z,2.30
2019-01-11T03:00:26.171Z,2.30
2019-01-11T03:02:54.603Z,2.30
2019-01-11T03:05:23.014Z,2.30
2019-01-11T03:07:51.419Z,2.30
2019-01-11T03:10:21.597Z,2.30
2019-01-11T03:12:50.298Z,2.30
2019-01-11T03:15:19.687Z,2.30
2019-01-11T03:17:48.170Z,2.30
2019-01-11T03:20:18.035Z,2.20
2019-01-11T03:22:46.544Z,2.20
2019-01-11T03:25:16.304Z,2.30
2019-01-11T03:27:44.728Z,2.30
2019-01-11T03:30:15.862Z,2.30
2019-01-11T03:32:44.429Z,2.30
2019-01-11T03:35:17.455Z,2.30
2019-01-11T03:37:47.975Z,2.30
2019-01-11T03:40:19.103Z,2.30
2019-01-11T03:42:47.593Z,2.30
2019-01-11T03:45:18.041Z,2.30
2019-01-11T03:47:46.806Z,2.40
2019-01-11T03:50:16.845Z,2.30
2019-01-11T03:52:45.501Z,2.40
2019-01-11T03:55:14.679Z,2.40
2019-01-11T03:57:43.089Z,2.40
2019-01-11T04:00:14.510Z,2.50
2019-01-11T04:02:43.261Z,2.50
2019-01-11T04:05:12.069Z,2.40
2019-01-11T04:07:40.554Z,2.50
2019-01-11T04:10:12.294Z,2.40
2019-01-11T04:12:40.699Z,2.40
2019-01-11T04:15:11.958Z,2.40
2019-01-11T04:17:40.748Z,2.50
2019-01-11T04:20:15.090Z,2.50
2019-01-11T04:22:45.155Z,2.50
2019-01-11T04:25:15.289Z,2.50
2019-01-11T04:27:43.712Z,2.50
2019-01-11T04:30:14.160Z,2.50
2019-01-11T04:32:42.581Z,2.50
2019-01-11T04:35:11.561Z,2.50
2019-01-11T04:37:40.969Z,2.60
2019-01-11T04:40:11.251Z,2.60
2019-01-11T04:42:39.901Z,2.60
2019-01-11T04:45:09.766Z,2.60
2019-01-11T04:47:38.232Z,2.60
2019-01-11T04:50:09.907Z,2.70
2019-01-11T04:52:38.799Z,2.70
2019-01-11T04:55:07.440Z,2.60
2019-01-11T04:57:35.908Z,2.60
2019-01-11T05:00:07.423Z,2.60
2019-01-11T05:02:36.088Z,2.70
2019-01-11T05:05:06.257Z,2.70
2019-01-11T05:07:34.657Z,2.60
2019-01-11T05:10:05.214Z,2.70
2019-01-11T05:12:33.644Z,2.70
2019-01-11T05:15:02.308Z,2.70
2019-01-11T05:17:31.130Z,2.70
2019-01-11T05:19:59.553Z,2.80
2019-01-11T05:22:28.245Z,2.70
2019-01-11T05:24:56.674Z,2.70
2019-01-11T05:27:25.098Z,2.70
2019-01-11T05:29:53.510Z,2.70
2019-01-11T05:32:22.262Z,2.70
2019-01-11T05:34:50.680Z,2.70
2019-01-11T05:37:19.164Z,2.70
2019-01-11T05:39:47.580Z,2.70
2019-01-11T05:42:16.027Z,2.70
2019-01-11T05:44:44.441Z,2.80
2019-01-11T05:47:12.866Z,2.80
2019-01-11T05:49:41.294Z,2.80
2019-01-11T05:52:09.734Z,2.80
2019-01-11T05:54:38.207Z,2.80
2019-01-11T05:57:06.645Z,2.80
2019-01-11T05:59:35.043Z,2.80
2019-01-11T06:02:03.462Z,2.80
2019-01-11T06:04:42.998Z,2.80
2019-01-11T06:07:24.523Z,2.70
2019-01-11T06:09:53.006Z,2.80
2019-01-11T06:12:22.495Z,2.80
2019-01-11T06:14:50.918Z,2.80
2019-01-11T06:17:19.346Z,2.80
2019-01-11T06:19:47.746Z,2.80
2019-01-11T06:22:16.484Z,2.80
2019-01-11T06:24:44.908Z,2.90
2019-01-11T06:27:13.320Z,2.90
2019-01-11T06:29:41.983Z,2.90
2019-01-11T06:32:10.397Z,2.90
2019-01-11T06:34:38.804Z,2.90
2019-01-11T06:37:07.257Z,2.90
2019-01-11T06:39:35.946Z,2.90
2019-01-11T06:42:06.136Z,2.90
2019-01-11T06:44:38.874Z,3.00
2019-01-11T06:47:04.774Z,3.00
2019-01-11T06:49:33.178Z,3.00
2019-01-11T06:52:01.915Z,3.00
2019-01-11T06:54:30.345Z,3.00
2019-01-11T06:56:58.780Z,3.00
2019-01-11T06:59:27.188Z,3.00
2019-01-11T07:01:55.961Z,3.10
2019-01-11T07:04:24.479Z,3.10
2019-01-11T07:06:52.998Z,3.10
2019-01-11T07:09:21.458Z,3.00
2019-01-11T07:11:49.859Z,3.00
2019-01-11T07:14:18.345Z,3.10
2019-01-11T07:16:47.083Z,3.10
2019-01-11T07:19:15.562Z,3.10
2019-01-11T07:21:43.985Z,3.10
2019-01-11T07:24:12.703Z,3.10
2019-01-11T07:26:41.530Z,3.10
2019-01-11T07:29:10.227Z,3.10
2019-01-11T07:31:38.654Z,3.20
2019-01-11T07:34:07.130Z,3.10
2019-01-11T07:36:35.637Z,3.20
2019-01-11T07:39:08.386Z,3.20
2019-01-11T07:41:36.823Z,3.20
2019-01-11T07:44:05.571Z,3.20
2019-01-11T07:46:33.974Z,3.20
2019-01-11T07:49:02.406Z,3.20
2019-01-11T07:51:30.878Z,3.20
2019-01-11T07:53:59.385Z,3.30
2019-01-11T07:56:27.778Z,3.30
2019-01-11T07:58:56.209Z,3.30
2019-01-11T08:01:24.628Z,3.30
2019-01-11T08:03:53.197Z,3.30
2019-01-11T08:06:21.689Z,3.30
2019-01-11T08:08:50.127Z,3.40
2019-01-11T08:11:18.599Z,3.40
2019-01-11T08:13:47.341Z,3.40
2019-01-11T08:16:15.752Z,3.50
2019-01-11T08:18:44.174Z,3.50
2019-01-11T08:21:12.716Z,3.60
2019-01-11T08:23:41.122Z,3.60
2019-01-11T08:26:09.612Z,3.70
2019-01-11T08:28:38.019Z,3.60
2019-01-11T08:31:06.461Z,3.60
2019-01-11T08:33:35.184Z,3.70
2019-01-11T08:36:03.925Z,3.70
2019-01-11T08:38:32.367Z,3.70
2019-01-11T08:41:00.789Z,3.70
2019-01-11T08:43:29.191Z,3.70
2019-01-11T08:45:57.606Z,3.80
2019-01-11T08:48:26.030Z,3.70
2019-01-11T08:50:54.499Z,3.70
2019-01-11T08:53:23.243Z,3.80
2019-01-11T08:55:51.671Z,3.80
2019-01-11T08:58:20.085Z,3.90
2019-01-11T09:00:48.866Z,3.90
2019-01-11T09:03:17.289Z,4.00
2019-01-11T09:05:45.698Z,3.90
2019-01-11T09:08:14.125Z,4.00
2019-01-11T09:10:42.525Z,4.00
2019-01-11T09:13:10.963Z,4.00
2019-01-11T09:15:39.686Z,4.10
2019-01-11T09:18:12.760Z,4.10
2019-01-11T09:20:41.621Z,4.10
2019-01-11T09:23:10.110Z,4.20
2019-01-11T09:25:38.522Z,4.20
2019-01-11T09:28:07.090Z,4.20
2019-01-11T09:30:35.755Z,4.20
2019-01-11T09:33:04.505Z,4.20
2019-01-11T09:35:33.172Z,4.30
2019-01-11T09:38:01.598Z,4.30
2019-01-11T09:40:30.066Z,4.30
2019-01-11T09:42:58.484Z,4.30
2019-01-11T09:45:27.197Z,4.40
2019-01-11T09:47:55.630Z,4.50
2019-01-11T09:50:24.317Z,4.50
2019-01-11T09:52:52.715Z,4.50
2019-01-11T09:55:21.429Z,4.60
2019-01-11T09:57:49.858Z,4.60
2019-01-11T10:00:21.726Z,4.70
2019-01-11T10:02:51.767Z,4.70
2019-01-11T10:05:20.452Z,4.70
2019-01-11T10:07:48.879Z,4.70
2019-01-11T10:10:17.369Z,4.70
2019-01-11T10:12:45.862Z,4.70
2019-01-11T10:15:15.131Z,4.70
2019-01-11T10:17:43.672Z,4.80
2019-01-11T10:20:13.438Z,4.90
2019-01-11T10:22:42.143Z,4.90
2019-01-11T10:25:11.629Z,4.90
2019-01-11T10:27:40.408Z,5.00
2019-01-11T10:30:11.934Z,5.10
2019-01-11T10:32:40.342Z,5.10
2019-01-11T10:35:10.345Z,5.20
2019-01-11T10:37:38.941Z,5.20
2019-01-11T10:40:10.442Z,5.30
2019-01-11T10:42:39.659Z,5.40
2019-01-11T10:45:11.486Z,5.40
2019-01-11T10:47:40.236Z,5.50
2019-01-11T10:50:12.623Z,5.50
2019-01-11T10:52:41.439Z,5.50
2019-01-11T10:55:12.363Z,5.50
2019-01-11T10:57:41.004Z,5.50
2019-01-11T11:00:21.711Z,5.60
2019-01-11T11:02:50.859Z,5.70
2019-01-11T11:05:19.684Z,5.70
2019-01-11T11:07:48.256Z,5.70
2019-01-11T11:10:16.803Z,5.80
2019-01-11T11:12:45.231Z,5.70
2019-01-11T11:15:15.998Z,5.80
2019-01-11T11:17:45.061Z,5.80
2019-01-11T11:20:15.610Z,5.80
2019-01-11T11:22:44.171Z,5.80
2019-01-11T11:25:15.489Z,5.80
2019-01-11T11:27:43.897Z,5.90
2019-01-11T11:30:14.570Z,5.90
2019-01-11T11:32:50.908Z,5.90
2019-01-11T11:35:19.642Z,5.90
2019-01-11T11:37:48.070Z,6.00
2019-01-11T11:40:16.458Z,6.00
2019-01-11T11:42:44.942Z,6.00
2019-01-11T11:45:13.497Z,6.00
2019-01-11T11:47:41.926Z,6.10
2019-01-11T11:50:10.874Z,6.10
2019-01-11T11:52:39.588Z,6.20
2019-01-11T11:55:09.245Z,6.20
2019-01-11T11:57:37.681Z,6.20
2019-01-11T12:00:20.786Z,6.20
2019-01-11T12:02:49.266Z,6.30
2019-01-11T12:05:17.689Z,6.30
2019-01-11T12:07:46.405Z,6.30
2019-01-11T12:10:15.990Z,6.30
2019-01-11T12:12:44.622Z,6.40
2019-01-11T12:15:14.373Z,6.30
2019-01-11T12:17:42.850Z,6.40
2019-01-11T12:20:26.402Z,6.40
2019-01-11T12:22:55.265Z,6.40
2019-01-11T12:25:23.745Z,6.40
2019-01-11T12:27:52.211Z,6.40
2019-01-11T12:30:20.626Z,6.50
2019-01-11T12:32:49.048Z,6.50
2019-01-11T12:35:17.793Z,6.50
2019-01-11T12:37:46.203Z,6.60
2019-01-11T12:40:15.665Z,6.60
2019-01-11T12:42:44.245Z,6.70
2019-01-11T12:45:15.048Z,6.60
2019-01-11T12:47:43.529Z,6.70
2019-01-11T12:50:18.353Z,6.70
2019-01-11T12:52:47.063Z,6.70
2019-01-11T12:55:15.599Z,6.70
2019-01-11T12:57:44.331Z,6.70
2019-01-11T13:00:15.234Z,6.70
2019-01-11T13:02:44.061Z,6.70
2019-01-11T13:05:15.146Z,6.80
2019-01-11T13:07:43.539Z,6.90
2019-01-11T13:10:14.642Z,6.90
2019-01-11T13:12:43.061Z,7.00
2019-01-11T13:15:13.912Z,7.00
2019-01-11T13:17:42.483Z,7.10
2019-01-11T13:20:13.531Z,7.20
2019-01-11T13:22:42.072Z,7.20
2019-01-11T13:25:10.956Z,7.30
2019-01-11T13:27:39.355Z,7.30
2019-01-11T13:30:10.894Z,7.30
2019-01-11T13:32:39.321Z,7.40
2019-01-11T13:35:08.264Z,7.40
2019-01-11T13:37:36.760Z,7.40
2019-01-11T13:40:08.244Z,7.50
2019-01-11T13:42:36.661Z,7.60
2019-01-11T13:45:06.591Z,7.70
2019-01-11T13:47:35.148Z,7.70
2019-01-11T13:50:05.186Z,7.70
2019-01-11T13:52:33.601Z,7.70
2019-01-11T13:55:02.025Z,7.80
2019-01-11T13:57:30.428Z,7.70
2019-01-11T13:59:58.838Z,7.70
2019-01-11T14:02:27.674Z,7.80
2019-01-11T14:04:56.097Z,7.80
2019-01-11T14:07:24.545Z,7.80
2019-01-11T14:09:53.287Z,7.80
2019-01-11T14:12:21.709Z,7.70
2019-01-11T14:14:50.115Z,7.70
2019-01-11T14:17:18.541Z,7.70
2019-01-11T14:19:47.220Z,7.70
2019-01-11T14:22:15.925Z,7.70
2019-01-11T14:24:44.323Z,7.70
2019-01-11T14:27:12.751Z,7.70
2019-01-11T14:29:41.161Z,7.70
2019-01-11T14:32:10.263Z,7.70
2019-01-11T14:34:38.659Z,7.70
2019-01-11T14:37:07.399Z,7.70
2019-01-11T14:39:36.086Z,7.70
2019-01-11T14:42:04.513Z,7.70
2019-01-11T14:44:32.918Z,7.70
2019-01-11T14:47:01.336Z,7.70
2019-01-11T14:49:30.115Z,7.70
2019-01-11T14:51:58.826Z,7.70
2019-01-11T14:54:27.250Z,7.90
2019-01-11T14:56:55.944Z,7.90
2019-01-11T14:59:24.361Z,7.90
2019-01-11T15:01:52.782Z,7.90
2019-01-11T15:04:21.192Z,7.90
2019-01-11T15:06:49.887Z,7.90
2019-01-11T15:09:18.694Z,7.80
2019-01-11T15:11:47.090Z,7.80
2019-01-11T15:14:15.517Z,7.80
2019-01-11T15:16:43.941Z,7.80
2019-01-11T15:19:14.456Z,7.80
2019-01-11T15:21:42.845Z,7.80
2019-01-11T15:24:11.248Z,7.80
2019-01-11T15:26:39.664Z,7.80
2019-01-11T15:29:08.140Z,7.70
2019-01-11T15:31:36.625Z,7.80
2019-01-11T15:34:05.371Z,7.90
2019-01-11T15:36:33.805Z,8.00
2019-01-11T15:42:31.540Z,8.10
2019-01-11T15:45:00.237Z,8.10
2019-01-11T15:47:28.663Z,8.20
2019-01-11T15:49:57.351Z,8.20
2019-01-11T15:52:26.003Z,8.10
2019-01-11T15:54:54.786Z,8.10
2019-01-11T15:57:25.377Z,8.20
2019-01-11T16:00:01.749Z,8.20
2019-01-11T16:02:30.433Z,8.20
2019-01-11T16:04:59.941Z,8.10
2019-01-11T16:07:28.440Z,8.10
2019-01-11T16:09:59.023Z,8.20
2019-01-11T16:12:30.114Z,8.10
2019-01-11T16:15:23.293Z,8.20
2019-01-11T16:17:55.070Z,8.20
2019-01-11T16:20:24.709Z,8.20
2019-01-11T16:22:53.122Z,8.20
2019-01-11T16:25:21.523Z,8.20
2019-01-11T16:27:50.202Z,8.00
2019-01-11T16:30:19.143Z,8.10
2019-01-11T16:32:47.582Z,8.00
2019-01-11T16:35:15.992Z,7.90
2019-01-11T16:37:44.662Z,7.90
2019-01-11T16:40:14.213Z,7.80
2019-01-11T16:42:42.666Z,7.80
2019-01-11T16:45:13.970Z,7.80
2019-01-11T16:47:42.378Z,7.80
2019-01-11T16:50:13.944Z,7.80
2019-01-11T16:52:46.319Z,7.80
2019-01-11T16:55:13.008Z,7.80
2019-01-11T16:57:41.486Z,7.90
2019-01-11T17:00:20.645Z,7.90
2019-01-11T17:02:49.039Z,7.90
2019-01-11T17:05:17.545Z,7.90
2019-01-11T17:07:46.025Z,7.90
2019-01-11T17:10:14.506Z,7.90
2019-01-11T17:12:43.202Z,7.80
2019-01-11T17:15:14.831Z,7.70
2019-01-11T17:17:43.277Z,7.80
2019-01-11T17:20:15.081Z,7.90
2019-01-11T17:22:43.491Z,7.90
2019-01-11T17:25:12.292Z,7.90
2019-01-11T17:27:41.007Z,7.80
2019-01-11T17:30:14.784Z,7.90
2019-01-11T17:32:43.304Z,7.90
2019-01-11T17:35:11.953Z,7.90
2019-01-11T17:37:40.669Z,8.00
2019-01-11T17:40:10.920Z,8.00
2019-01-11T17:42:39.395Z,8.00
2019-01-11T17:45:11.087Z,8.00
2019-01-11T17:47:39.699Z,8.00
2019-01-11T17:50:11.045Z,8.10
2019-01-11T17:52:39.449Z,7.90
2019-01-11T17:55:08.140Z,7.90
2019-01-11T17:57:36.813Z,8.00
2019-01-11T18:01:54.154Z,8.00
2019-01-11T18:04:22.588Z,8.00
2019-01-11T18:06:51.138Z,8.00
2019-01-11T18:09:19.578Z,8.10
2019-01-11T18:11:48.296Z,8.10
2019-01-11T18:14:16.884Z,8.00
2019-01-11T18:16:45.585Z,8.00
2019-01-11T18:19:14.041Z,7.90
2019-01-11T18:21:42.488Z,7.90
2019-01-11T18:24:11.245Z,7.80
2019-01-11T18:26:39.680Z,7.90
2019-01-11T18:29:08.158Z,7.90
2019-01-11T18:31:36.589Z,7.90
2019-01-11T18:34:05.074Z,7.90
2019-01-11T18:36:33.505Z,7.80
2019-01-11T18:39:01.940Z,7.80
2019-01-11T18:41:30.370Z,7.80
2019-01-11T18:43:58.800Z,7.70
2019-01-11T18:46:27.604Z,7.70
2019-01-11T18:48:56.048Z,7.70
2019-01-11T18:51:24.468Z,7.70
2019-01-11T18:53:53.223Z,7.70
2019-01-11T18:56:21.664Z,7.70
2019-01-11T18:58:50.099Z,7.70
2019-01-11T19:01:18.517Z,7.70
2019-01-11T19:03:46.956Z,7.70
2019-01-11T19:06:15.735Z,7.60
2019-01-11T19:08:44.174Z,7.50
2019-01-11T19:11:12.925Z,7.50
2019-01-11T19:13:41.336Z,7.60
2019-01-11T19:16:10.698Z,7.60
2019-01-11T19:18:39.306Z,7.60
2019-01-11T19:21:07.789Z,7.60
2019-01-11T19:23:36.244Z,7.70
2019-01-11T19:26:04.736Z,7.70
2019-01-11T19:28:33.492Z,7.70
2019-01-11T19:31:01.918Z,7.60
2019-01-11T19:33:30.351Z,7.70
2019-01-11T19:35:59.131Z,7.70
2019-01-11T19:38:27.578Z,7.80
2019-01-11T19:40:56.019Z,7.80
2019-01-11T19:43:24.455Z,7.90
2019-01-11T19:45:53.170Z,7.90
2019-01-11T19:48:21.578Z,7.90
2019-01-11T19:50:50.349Z,7.80
2019-01-11T19:53:18.829Z,7.90
2019-01-11T19:55:47.275Z,7.90
2019-01-11T19:58:15.837Z,7.80
2019-01-11T20:00:44.562Z,7.90
2019-01-11T20:03:12.979Z,7.90
2019-01-11T20:05:41.450Z,7.90
2019-01-11T20:08:10.241Z,7.80
2019-01-11T20:10:38.734Z,7.90
2019-01-11T20:13:07.346Z,7.80
2019-01-11T20:15:36.076Z,7.80
2019-01-11T20:18:05.984Z,7.80
2019-01-11T20:20:34.777Z,7.80
2019-01-11T20:23:03.227Z,7.90
2019-01-11T20:25:31.716Z,7.80
2019-01-11T20:28:00.146Z,7.80
2019-01-11T20:30:29.327Z,7.90
2019-01-11T20:32:57.827Z,7.90
2019-01-11T20:35:26.308Z,7.90
2019-01-11T20:37:55.076Z,8.00
2019-01-11T20:40:23.657Z,8.00
2019-01-11T20:42:52.078Z,8.00
2019-01-11T20:45:20.823Z,8.00
2019-01-11T20:47:49.584Z,8.00
2019-01-11T20:50:19.939Z,8.00
2019-01-11T20:52:48.387Z,8.00
2019-01-11T20:55:16.963Z,8.00
2019-01-11T20:57:45.619Z,8.00
2019-01-11T21:00:17.816Z,8.10
2019-01-11T21:02:46.318Z,8.00
2019-01-11T21:05:15.522Z,8.00
2019-01-11T21:07:43.950Z,8.00
2019-01-11T21:10:14.424Z,7.90
2019-01-11T21:12:42.846Z,7.90
2019-01-11T21:15:22.584Z,7.80
2019-01-11T21:17:51.368Z,7.80
2019-01-11T21:20:20.295Z,7.70
2019-01-11T21:22:48.727Z,7.70
2019-01-11T21:25:18.996Z,7.60
2019-01-11T21:27:47.463Z,7.60
2019-01-11T21:30:26.995Z,7.60
2019-01-11T21:32:55.472Z,7.60
2019-01-11T21:35:24.336Z,7.60
2019-01-11T21:37:52.752Z,7.70
2019-01-11T21:40:21.733Z,7.60
2019-01-11T21:42:50.699Z,7.70
2019-01-11T21:45:19.497Z,7.70
2019-01-11T21:47:48.066Z,7.60
2019-01-11T21:50:22.013Z,7.50
2019-01-11T21:52:50.710Z,7.50
2019-01-11T21:55:19.277Z,7.60
2019-01-11T21:57:47.783Z,7.70
2019-01-11T22:00:22.223Z,7.60
2019-01-11T22:02:50.679Z,7.60
2019-01-11T22:05:19.337Z,7.60
2019-01-11T22:07:47.759Z,7.60
2019-01-11T22:10:17.518Z,7.60
2019-01-11T22:12:47.569Z,7.50
2019-01-11T22:15:18.349Z,7.50
2019-01-11T22:17:47.129Z,7.50
2019-01-11T22:20:19.209Z,7.60
2019-01-11T22:22:47.703Z,7.60
2019-01-11T22:25:17.264Z,7.50
2019-01-11T22:27:46.011Z,7.50
2019-01-11T22:30:29.869Z,7.60
2019-01-11T22:32:52.930Z,7.60
2019-01-11T22:35:21.499Z,7.70
2019-01-11T22:37:49.951Z,7.50
2019-01-11T22:40:23.538Z,7.50
2019-01-11T22:42:54.310Z,7.40
2019-01-11T22:45:23.097Z,7.30
2019-01-11T22:47:51.887Z,7.30
2019-01-11T22:50:20.311Z,7.30
2019-01-11T22:52:48.878Z,7.30
2019-01-11T22:55:18.773Z,7.30
2019-01-11T22:57:47.542Z,7.30
2019-01-11T23:00:36.009Z,7.30
2019-01-11T23:03:07.807Z,7.20
2019-01-11T23:05:37.999Z,7.30
2019-01-11T23:08:09.162Z,7.20
2019-01-11T23:10:49.781Z,7.30
2019-01-11T23:13:18.291Z,7.30
2019-01-11T23:15:46.802Z,7.30
2019-01-11T23:18:15.237Z,7.40
2019-01-11T23:20:43.818Z,7.60
2019-01-11T23:23:12.246Z,7.60
2019-01-11T23:25:40.707Z,7.60
2019-01-11T23:28:09.472Z,7.70
2019-01-11T23:30:37.894Z,7.70
2019-01-11T23:33:06.326Z,7.70
2019-01-11T23:35:34.834Z,7.70
2019-01-11T23:38:03.267Z,7.60
2019-01-11T23:40:31.709Z,7.70
2019-01-11T23:43:00.134Z,7.60
2019-01-11T23:45:28.572Z,7.60
2019-01-11T23:47:57.040Z,7.60
2019-01-11T23:50:25.472Z,7.60
2019-01-11T23:52:53.897Z,7.50
2019-01-11T23:55:22.353Z,7.50
2019-01-11T23:57:50.822Z,7.50
